createdAt,value
2022-09-23T00:00:13.786Z,10.65
2022-09-23T00:01:07.597Z,9.77
2022-09-23T00:01:54.559Z,10.30
2022-09-23T00:02:43.117Z,8.38
2022-09-23T00:03:31.023Z,10.18
2022-09-23T00:04:17.739Z,9.85
2022-09-23T00:05:04.944Z,10.10
2022-09-23T00:06:02.383Z,11.27
2022-09-23T00:06:49.057Z,10.82
2022-09-23T00:07:35.753Z,8.55
2022-09-23T00:08:22.433Z,9.40
2022-09-23T00:09:09.270Z,10.25
2022-09-23T00:09:56.278Z,9.98
2022-09-23T00:10:42.979Z,10.18
2022-09-23T00:11:30.033Z,12.13
2022-09-23T00:12:18.234Z,10.52
2022-09-23T00:13:06.043Z,7.82
2022-09-23T00:13:56.465Z,9.07
2022-09-23T00:14:43.265Z,9.48
2022-09-23T00:15:31.345Z,8.75
2022-09-23T00:16:22.016Z,8.85
2022-09-23T00:17:55.537Z,10.18
2022-09-23T00:18:43.297Z,8.48
2022-09-23T00:19:29.964Z,8.35
2022-09-23T00:20:17.712Z,10.13
2022-09-23T00:21:06.298Z,10.10
2022-09-23T00:21:53.305Z,10.07
2022-09-23T00:22:40.890Z,9.32
2022-09-23T00:23:27.573Z,11.15
2022-09-23T00:24:16.002Z,9.02
2022-09-23T00:25:03.963Z,10.25
2022-09-23T00:26:01.542Z,10.05
2022-09-23T00:26:48.209Z,8.70
2022-09-23T00:27:35.585Z,12.00
2022-09-23T00:28:22.283Z,8.93
2022-09-23T00:29:09.092Z,9.82
2022-09-23T00:29:55.879Z,9.10
2022-09-23T00:30:42.611Z,8.95
2022-09-23T00:31:29.408Z,11.27
2022-09-23T00:32:16.078Z,8.85
2022-09-23T00:33:02.859Z,8.82
2022-09-23T00:33:58.070Z,8.15
2022-09-23T00:34:44.904Z,10.57
2022-09-23T00:35:31.630Z,9.77
2022-09-23T00:36:18.344Z,10.02
2022-09-23T00:37:05.189Z,10.90
2022-09-23T00:37:52.041Z,8.02
2022-09-23T00:38:38.976Z,9.00
2022-09-23T00:39:26.631Z,8.75
2022-09-23T00:40:13.531Z,9.52
2022-09-23T00:41:00.798Z,9.63
2022-09-23T00:41:47.644Z,8.77
2022-09-23T00:42:34.661Z,9.20
2022-09-23T00:43:41.489Z,7.75
2022-09-23T00:44:53.047Z,9.27
2022-09-23T00:45:40.753Z,8.38
2022-09-23T00:46:40.459Z,10.80
2022-09-23T00:47:33.825Z,7.80
2022-09-23T00:48:20.841Z,8.85
2022-09-23T00:49:25.401Z,9.10
2022-09-23T00:50:42.273Z,7.53
2022-09-23T00:51:34.567Z,9.98
2022-09-23T00:52:23.842Z,10.98
2022-09-23T00:53:16.350Z,8.00
2022-09-23T00:54:03.800Z,8.35
2022-09-23T00:54:52.707Z,10.63
2022-09-23T00:55:58.031Z,8.65
2022-09-23T00:56:44.801Z,9.75
2022-09-23T00:57:31.935Z,9.20
2022-09-23T00:58:25.422Z,10.10
2022-09-23T00:59:13.065Z,8.15
2022-09-23T00:59:59.859Z,10.43
2022-09-23T01:00:47.021Z,8.57
2022-09-23T01:01:33.818Z,9.05
2022-09-23T01:02:21.389Z,11.38
2022-09-23T01:03:08.501Z,10.07
2022-09-23T01:03:55.946Z,9.40
2022-09-23T01:04:43.050Z,10.57
2022-09-23T01:05:29.760Z,9.43
2022-09-23T01:06:16.558Z,9.43
2022-09-23T01:07:03.339Z,8.30
2022-09-23T01:07:50.962Z,8.35
2022-09-23T01:08:37.868Z,7.90
2022-09-23T01:09:25.411Z,9.60
2022-09-23T01:10:13.873Z,9.75
2022-09-23T01:11:28.316Z,8.93
2022-09-23T01:12:36.481Z,8.55
2022-09-23T01:13:45.027Z,8.63
2022-09-23T01:15:03.622Z,7.97
2022-09-23T01:15:54.871Z,7.40
2022-09-23T01:16:49.032Z,7.82
2022-09-23T01:17:54.640Z,8.25
2022-09-23T01:18:59.295Z,9.23
2022-09-23T01:19:57.175Z,8.68
2022-09-23T01:21:28.797Z,7.93
2022-09-23T01:22:42.505Z,8.95
2022-09-23T01:23:38.419Z,10.45
2022-09-23T01:24:57.553Z,8.43
2022-09-23T01:26:20.463Z,8.45
2022-09-23T01:27:42.515Z,9.85
2022-09-23T01:29:14.636Z,9.75
2022-09-23T01:30:08.506Z,8.98
2022-09-23T01:31:05.760Z,9.80
2022-09-23T01:32:25.366Z,10.02
2022-09-23T01:33:30.378Z,8.32
2022-09-23T01:34:36.892Z,8.23
2022-09-23T01:35:55.663Z,8.40
2022-09-23T01:36:55.671Z,8.20
2022-09-23T01:37:52.348Z,7.65
2022-09-23T01:38:44.946Z,7.68
2022-09-23T01:39:42.335Z,9.13
2022-09-23T01:40:41.221Z,7.87
2022-09-23T01:41:47.385Z,8.38
2022-09-23T01:42:46.432Z,8.45
2022-09-23T01:44:08.536Z,11.43
2022-09-23T01:45:11.149Z,8.07
2022-09-23T01:45:59.984Z,10.07
2022-09-23T01:46:57.151Z,7.70
2022-09-23T01:48:21.436Z,8.27
2022-09-23T01:49:40.044Z,7.53
2022-09-23T01:50:57.271Z,8.93
2022-09-23T01:51:48.279Z,7.60
2022-09-23T01:52:44.951Z,8.35
2022-09-23T01:54:09.333Z,7.30
2022-09-23T01:55:13.654Z,8.88
2022-09-23T01:56:03.659Z,9.73
2022-09-23T01:57:12.285Z,8.43
2022-09-23T01:58:07.792Z,9.48
2022-09-23T01:58:54.453Z,11.07
2022-09-23T01:59:44.992Z,9.18
2022-09-23T02:00:35.358Z,8.60
2022-09-23T02:01:30.367Z,7.32
2022-09-23T02:02:30.423Z,8.40
2022-09-23T02:03:26.197Z,8.95
2022-09-23T02:04:31.297Z,8.98
2022-09-23T02:05:40.235Z,8.43
2022-09-23T02:06:31.857Z,7.68
2022-09-23T02:07:24.230Z,14.43
2022-09-23T02:08:10.820Z,8.40
2022-09-23T02:09:03.185Z,7.68
2022-09-23T02:09:58.484Z,9.50
2022-09-23T02:10:56.649Z,8.30
2022-09-23T02:11:46.602Z,7.95
2022-09-23T02:12:35.511Z,8.50
2022-09-23T02:13:47.209Z,7.95
2022-09-23T02:14:40.805Z,8.73
2022-09-23T02:15:33.050Z,7.72
2022-09-23T02:16:33.800Z,7.07
2022-09-23T02:18:18.549Z,8.38
2022-09-23T02:19:12.946Z,7.50
2022-09-23T02:20:05.073Z,7.45
2022-09-23T02:20:54.607Z,8.45
2022-09-23T02:21:45.099Z,7.53
2022-09-23T02:22:38.685Z,8.30
2022-09-23T02:23:33.174Z,8.57
2022-09-23T02:24:22.695Z,8.43
2022-09-23T02:25:12.662Z,9.55
2022-09-23T02:26:21.774Z,8.73
2022-09-23T02:27:23.528Z,7.18
2022-09-23T02:28:20.763Z,7.75
2022-09-23T02:29:13.411Z,8.20
2022-09-23T02:30:09.098Z,9.63
2022-09-23T02:31:23.837Z,9.15
2022-09-23T02:32:18.188Z,8.55
2022-09-23T02:33:12.628Z,7.68
2022-09-23T02:34:23.881Z,7.95
2022-09-23T02:35:19.349Z,8.77
2022-09-23T02:36:33.204Z,10.50
2022-09-23T02:37:32.557Z,10.32
2022-09-23T02:38:33.561Z,7.60
2022-09-23T02:40:34.480Z,7.90
2022-09-23T02:41:42.337Z,7.90
2022-09-23T02:42:36.275Z,8.80
2022-09-23T02:43:36.333Z,9.80
2022-09-23T02:44:24.194Z,9.40
2022-09-23T02:45:10.903Z,7.85
2022-09-23T02:45:57.649Z,8.02
2022-09-23T02:46:44.587Z,8.20
2022-09-23T02:47:33.647Z,10.48
2022-09-23T02:48:41.466Z,8.18
2022-09-23T02:49:29.655Z,11.25
2022-09-23T02:50:18.258Z,8.68
2022-09-23T02:51:05.371Z,9.05
2022-09-23T02:51:52.495Z,8.45
2022-09-23T02:52:39.327Z,8.25
2022-09-23T02:53:25.970Z,8.93
2022-09-23T02:54:21.559Z,9.00
2022-09-23T02:55:09.451Z,8.20
2022-09-23T02:55:56.865Z,9.15
2022-09-23T02:56:43.890Z,10.68
2022-09-23T02:57:30.766Z,8.65
2022-09-23T02:58:17.714Z,9.23
2022-09-23T02:59:04.981Z,9.27
2022-09-23T02:59:51.976Z,8.48
2022-09-23T03:01:02.136Z,11.63
2022-09-23T03:02:14.794Z,9.10
2022-09-23T03:03:39.199Z,8.68
2022-09-23T03:04:39.016Z,8.55
2022-09-23T03:05:30.314Z,13.45
2022-09-23T03:06:47.515Z,9.00
2022-09-23T03:07:58.698Z,9.73
2022-09-23T03:08:50.634Z,8.90
2022-09-23T03:09:54.466Z,8.80
2022-09-23T03:10:53.330Z,9.38
2022-09-23T03:11:42.424Z,8.20
2022-09-23T03:12:39.061Z,7.97
2022-09-23T03:13:29.389Z,10.27
2022-09-23T03:14:25.939Z,9.07
2022-09-23T03:15:42.351Z,10.57
2022-09-23T03:16:40.101Z,7.60
2022-09-23T03:17:35.077Z,9.00
2022-09-23T03:18:41.361Z,10.25
2022-09-23T03:19:34.079Z,8.65
2022-09-23T03:20:31.722Z,10.02
2022-09-23T03:21:41.720Z,9.90
2022-09-23T03:24:08.091Z,7.78
2022-09-23T03:24:55.680Z,10.25
2022-09-23T03:25:44.801Z,8.63
2022-09-23T03:26:34.371Z,7.80
2022-09-23T03:27:25.981Z,7.50
2022-09-23T03:28:13.101Z,7.95
2022-09-23T03:29:03.602Z,9.40
2022-09-23T03:29:51.799Z,7.70
2022-09-23T03:30:39.635Z,9.05
2022-09-23T03:31:26.387Z,9.70
2022-09-23T03:32:15.190Z,10.00
2022-09-23T03:33:04.791Z,9.77
2022-09-23T03:33:55.402Z,7.93
2022-09-23T03:35:32.205Z,7.62
2022-09-23T03:36:44.141Z,8.18
2022-09-23T03:37:35.981Z,8.52
2022-09-23T03:38:24.616Z,8.35
2022-09-23T03:39:17.880Z,7.80
2022-09-23T03:40:08.529Z,7.97
2022-09-23T03:40:56.402Z,8.10
2022-09-23T03:41:51.001Z,7.97
2022-09-23T03:42:38.074Z,8.95
2022-09-23T03:43:24.903Z,9.63
2022-09-23T03:44:11.878Z,8.55
2022-09-23T03:44:58.802Z,8.27
2022-09-23T03:45:46.593Z,7.72
2022-09-23T03:46:35.569Z,8.07
2022-09-23T03:47:22.525Z,9.15
2022-09-23T03:48:09.516Z,9.30
2022-09-23T03:49:10.186Z,8.00
2022-09-23T03:49:56.958Z,7.87
2022-09-23T03:50:44.511Z,8.93
2022-09-23T03:51:31.175Z,7.82
2022-09-23T03:52:20.011Z,8.52
2022-09-23T03:53:07.253Z,9.70
2022-09-23T03:53:54.101Z,8.02
2022-09-23T03:54:40.936Z,9.48
2022-09-23T03:55:27.700Z,7.80
2022-09-23T03:56:14.774Z,7.57
2022-09-23T03:57:03.234Z,7.70
2022-09-23T03:57:50.129Z,7.75
2022-09-23T03:58:36.800Z,8.73
2022-09-23T03:59:27.243Z,8.10
2022-09-23T04:00:15.002Z,8.57
2022-09-23T04:01:01.787Z,7.53
2022-09-23T04:01:48.537Z,8.00
2022-09-23T04:02:35.663Z,9.13
2022-09-23T04:03:22.889Z,9.02
2022-09-23T04:04:10.655Z,7.87
2022-09-23T04:04:57.385Z,8.52
2022-09-23T04:05:45.448Z,9.27
2022-09-23T04:06:32.152Z,8.13
2022-09-23T04:07:19.300Z,10.38
2022-09-23T04:08:06.351Z,7.90
2022-09-23T04:08:53.036Z,7.07
2022-09-23T04:09:39.918Z,9.75
2022-09-23T04:10:26.512Z,7.37
2022-09-23T04:11:13.318Z,7.32
2022-09-23T04:12:00.143Z,9.63
2022-09-23T04:12:46.813Z,9.45
2022-09-23T04:13:33.813Z,8.25
2022-09-23T04:14:22.260Z,8.10
2022-09-23T04:15:09.393Z,8.05
2022-09-23T04:15:56.122Z,9.70
2022-09-23T04:16:42.950Z,9.00
2022-09-23T04:17:30.265Z,7.70
2022-09-23T04:18:16.929Z,8.02
2022-09-23T04:19:05.018Z,8.00
2022-09-23T04:19:51.789Z,7.65
2022-09-23T04:20:39.494Z,8.35
2022-09-23T04:21:26.486Z,8.10
2022-09-23T04:22:13.638Z,9.07
2022-09-23T04:23:00.386Z,7.28
2022-09-23T04:23:47.240Z,9.07
2022-09-23T04:24:34.001Z,8.35
2022-09-23T04:25:20.771Z,8.05
2022-09-23T04:26:07.907Z,8.55
2022-09-23T04:26:56.822Z,9.52
2022-09-23T04:27:43.531Z,10.13
2022-09-23T04:28:30.270Z,8.57
2022-09-23T04:29:17.196Z,8.77
2022-09-23T04:30:05.011Z,7.50
2022-09-23T04:30:51.822Z,8.52
2022-09-23T04:31:38.811Z,10.95
2022-09-23T04:32:25.479Z,9.85
2022-09-23T04:33:12.754Z,7.57
2022-09-23T04:33:59.785Z,8.30
2022-09-23T04:34:46.480Z,7.43
2022-09-23T04:35:35.699Z,9.20
2022-09-23T04:36:26.504Z,10.18
2022-09-23T04:37:13.310Z,8.07
2022-09-23T04:37:59.974Z,8.23
2022-09-23T04:38:47.386Z,8.20
2022-09-23T04:39:34.166Z,10.30
2022-09-23T04:40:20.913Z,7.90
2022-09-23T04:41:09.936Z,9.63
2022-09-23T04:41:56.699Z,8.10
2022-09-23T04:42:43.485Z,10.55
2022-09-23T04:43:30.231Z,10.07
2022-09-23T04:44:17.324Z,7.95
2022-09-23T04:45:05.747Z,8.05
2022-09-23T04:46:03.994Z,14.52
2022-09-23T04:46:50.729Z,7.72
2022-09-23T04:47:37.494Z,9.82
2022-09-23T04:48:24.206Z,9.98
2022-09-23T04:49:11.373Z,8.23
2022-09-23T04:49:59.931Z,9.15
2022-09-23T04:50:47.146Z,9.68
2022-09-23T04:51:34.198Z,8.32
2022-09-23T04:52:20.943Z,10.90
2022-09-23T04:53:08.273Z,10.27
2022-09-23T04:53:55.804Z,9.50
2022-09-23T04:54:42.591Z,9.63
2022-09-23T04:55:29.884Z,10.82
2022-09-23T04:56:20.894Z,9.15
2022-09-23T04:57:11.194Z,7.43
2022-09-23T04:57:57.968Z,11.27
2022-09-23T04:58:45.655Z,7.80
2022-09-23T04:59:32.325Z,9.82
2022-09-23T05:00:19.163Z,11.02
2022-09-23T05:01:10.916Z,8.60
2022-09-23T05:01:57.687Z,9.43
2022-09-23T05:02:46.007Z,9.30
2022-09-23T05:03:36.067Z,8.20
2022-09-23T05:04:22.964Z,9.55
2022-09-23T05:05:09.642Z,12.18
2022-09-23T05:06:00.101Z,9.73
2022-09-23T05:06:46.784Z,8.80
2022-09-23T05:07:33.566Z,9.50
2022-09-23T05:08:22.276Z,8.82
2022-09-23T05:09:09.114Z,8.55
2022-09-23T05:09:56.016Z,8.07
2022-09-23T05:10:42.863Z,8.77
2022-09-23T05:11:30.845Z,7.97
2022-09-23T05:12:17.554Z,8.48
2022-09-23T05:13:04.223Z,12.30
2022-09-23T05:13:52.855Z,11.38
2022-09-23T05:14:39.672Z,13.57
2022-09-23T05:15:26.673Z,13.55
2022-09-23T05:16:13.474Z,11.02
2022-09-23T05:17:00.268Z,11.07
2022-09-23T05:17:47.093Z,10.13
2022-09-23T05:18:37.533Z,10.60
2022-09-23T05:19:24.283Z,8.48
2022-09-23T05:20:11.661Z,9.40
2022-09-23T05:20:58.963Z,8.85
2022-09-23T05:21:45.763Z,10.45
2022-09-23T05:22:32.595Z,9.27
2022-09-23T05:23:19.269Z,11.68
2022-09-23T05:24:06.253Z,11.48
2022-09-23T05:24:53.604Z,11.27
2022-09-23T05:25:42.693Z,11.12
2022-09-23T05:26:31.806Z,15.85
2022-09-23T05:27:18.798Z,10.27
2022-09-23T05:28:05.446Z,10.45
2022-09-23T05:28:52.893Z,11.25
2022-09-23T05:29:39.703Z,9.60
2022-09-23T05:30:26.413Z,8.85
2022-09-23T05:31:19.926Z,9.32
2022-09-23T05:32:07.053Z,8.40
2022-09-23T05:32:54.362Z,8.13
2022-09-23T05:33:42.063Z,8.30
2022-09-23T05:34:28.753Z,11.23
2022-09-23T05:35:15.503Z,11.57
2022-09-23T05:36:03.413Z,9.98
2022-09-23T05:36:50.263Z,8.50
2022-09-23T05:37:37.343Z,8.88
2022-09-23T05:38:24.113Z,8.95
2022-09-23T05:39:10.791Z,10.27
2022-09-23T05:39:57.573Z,11.10
2022-09-23T05:40:44.325Z,7.68
2022-09-23T05:41:31.066Z,9.50
2022-09-23T05:42:18.424Z,9.40
2022-09-23T05:43:05.433Z,8.43
2022-09-23T05:43:53.815Z,8.70
2022-09-23T05:44:40.454Z,7.97
2022-09-23T05:45:27.125Z,7.90
2022-09-23T05:46:16.336Z,9.05
2022-09-23T05:47:03.125Z,10.20
2022-09-23T05:47:49.857Z,9.82
2022-09-23T05:48:37.345Z,8.10
2022-09-23T05:49:37.729Z,9.82
2022-09-23T05:50:30.823Z,7.43
2022-09-23T05:51:20.272Z,7.37
2022-09-23T05:52:07.091Z,7.50
2022-09-23T05:52:53.773Z,7.87
2022-09-23T05:53:45.028Z,8.82
2022-09-23T05:54:31.701Z,8.25
2022-09-23T05:55:18.571Z,7.10
2022-09-23T05:56:06.368Z,9.52
2022-09-23T05:56:53.054Z,7.32
2022-09-23T05:57:39.753Z,8.40
2022-09-23T05:58:27.854Z,8.60
2022-09-23T05:59:14.624Z,6.90
2022-09-23T06:00:01.472Z,7.82
2022-09-23T06:00:49.424Z,8.73
2022-09-23T06:01:38.184Z,7.70
2022-09-23T06:02:25.005Z,8.05
2022-09-23T06:03:16.074Z,8.25
2022-09-23T06:04:05.212Z,7.95
2022-09-23T06:04:51.943Z,7.87
2022-09-23T06:05:39.037Z,8.52
2022-09-23T06:06:36.680Z,8.15
2022-09-23T06:07:23.394Z,7.50
2022-09-23T06:08:10.656Z,9.50
2022-09-23T06:08:58.665Z,8.77
2022-09-23T06:09:45.741Z,8.00
2022-09-23T06:10:40.087Z,9.13
2022-09-23T06:11:27.364Z,8.00
2022-09-23T06:12:14.289Z,7.90
2022-09-23T06:13:00.913Z,7.65
2022-09-23T06:13:48.631Z,8.50
2022-09-23T06:14:35.253Z,8.25
2022-09-23T06:15:21.993Z,9.40
2022-09-23T06:16:11.025Z,9.60
2022-09-23T06:16:57.664Z,8.75
2022-09-23T06:17:44.561Z,8.55
2022-09-23T06:18:31.165Z,7.87
2022-09-23T06:19:17.742Z,8.68
2022-09-23T06:20:04.615Z,10.95
2022-09-23T06:20:51.553Z,9.30
2022-09-23T06:21:40.592Z,10.52
2022-09-23T06:22:27.853Z,12.93
2022-09-23T06:23:14.475Z,10.30
2022-09-23T06:24:01.414Z,9.57
2022-09-23T06:24:48.172Z,9.23
2022-09-23T06:25:35.802Z,11.43
2022-09-23T06:26:22.673Z,9.60
2022-09-23T06:27:09.983Z,9.15
2022-09-23T06:27:56.764Z,12.45
2022-09-23T06:28:44.563Z,10.02
2022-09-23T06:29:32.186Z,11.10
2022-09-23T06:30:18.808Z,12.32
2022-09-23T06:31:13.384Z,10.80
2022-09-23T06:32:00.848Z,11.80
2022-09-23T06:32:52.226Z,11.63
2022-09-23T06:33:39.004Z,12.65
2022-09-23T06:34:25.615Z,13.45
2022-09-23T06:35:23.906Z,11.57
2022-09-23T06:36:22.368Z,12.30
2022-09-23T06:37:20.502Z,12.10
2022-09-23T06:38:07.653Z,12.48
2022-09-23T06:38:54.235Z,12.37
2022-09-23T06:39:40.882Z,11.93
2022-09-23T06:40:27.577Z,12.50
2022-09-23T06:41:14.253Z,12.15
2022-09-23T06:42:00.913Z,12.50
2022-09-23T06:42:52.089Z,12.13
2022-09-23T06:43:39.135Z,13.98
2022-09-23T06:44:25.726Z,12.02
2022-09-23T06:45:14.774Z,14.27
2022-09-23T06:46:04.068Z,12.90
2022-09-23T06:46:51.023Z,13.45
2022-09-23T06:47:37.963Z,11.93
2022-09-23T06:48:27.228Z,14.52
2022-09-23T06:49:13.837Z,13.80
2022-09-23T06:50:00.453Z,12.80
2022-09-23T06:50:49.254Z,13.70
2022-09-23T06:51:35.896Z,13.32
2022-09-23T06:52:22.551Z,13.02
2022-09-23T06:53:09.444Z,11.55
2022-09-23T06:53:56.093Z,12.45
2022-09-23T06:54:42.763Z,11.57
2022-09-23T06:55:29.521Z,10.55
2022-09-23T06:56:17.424Z,11.12
2022-09-23T06:57:04.086Z,12.52
2022-09-23T06:57:51.159Z,11.63
2022-09-23T06:58:39.102Z,11.73
2022-09-23T06:59:25.704Z,11.63
2022-09-23T07:00:13.353Z,11.27
2022-09-23T07:01:07.825Z,11.85
2022-09-23T07:01:54.662Z,12.88
2022-09-23T07:02:42.403Z,12.13
2022-09-23T07:03:31.103Z,11.68
2022-09-23T07:04:17.771Z,11.00
2022-09-23T07:05:05.263Z,12.73
2022-09-23T07:05:55.682Z,13.48
2022-09-23T07:06:42.983Z,12.20
2022-09-23T07:07:32.933Z,10.77
2022-09-23T07:08:19.613Z,14.05
2022-09-23T07:09:07.342Z,11.40
2022-09-23T07:09:54.213Z,12.57
2022-09-23T07:10:40.985Z,11.02
2022-09-23T07:11:28.062Z,11.90
2022-09-23T07:12:14.812Z,12.07
2022-09-23T07:13:03.291Z,11.32
2022-09-23T07:13:50.735Z,10.68
2022-09-23T07:14:37.462Z,10.80
2022-09-23T07:15:24.217Z,10.90
2022-09-23T07:16:11.595Z,11.10
2022-09-23T07:17:00.088Z,10.68
2022-09-23T07:17:46.802Z,11.23
2022-09-23T07:18:37.023Z,10.88
2022-09-23T07:19:24.605Z,14.87
2022-09-23T07:20:11.602Z,13.52
2022-09-23T07:21:05.694Z,10.75
2022-09-23T07:21:52.416Z,11.15
2022-09-23T07:22:39.210Z,13.23
2022-09-23T07:23:26.052Z,10.07
2022-09-23T07:24:12.836Z,11.43
2022-09-23T07:24:59.684Z,10.57
2022-09-23T07:25:47.213Z,10.77
2022-09-23T07:26:34.354Z,12.85
2022-09-23T07:27:21.193Z,10.25
2022-09-23T07:28:08.249Z,10.85
2022-09-23T07:28:56.113Z,10.80
2022-09-23T07:29:48.968Z,11.23
2022-09-23T07:30:43.394Z,10.68
2022-09-23T07:31:39.498Z,13.05
2022-09-23T07:32:27.015Z,13.13
2022-09-23T07:33:29.516Z,10.65
2022-09-23T07:34:18.093Z,10.63
2022-09-23T07:35:05.162Z,11.00
2022-09-23T07:35:51.953Z,10.57
2022-09-23T07:36:41.099Z,11.52
2022-09-23T07:37:28.021Z,10.95
2022-09-23T07:38:14.932Z,11.18
2022-09-23T07:39:03.326Z,11.10
2022-09-23T07:39:51.182Z,10.48
2022-09-23T07:40:39.651Z,10.50
2022-09-23T07:41:28.958Z,11.20
2022-09-23T07:42:15.942Z,10.52
2022-09-23T07:43:05.533Z,12.27
2022-09-23T07:43:56.533Z,11.48
2022-09-23T07:44:45.412Z,10.95
2022-09-23T07:45:34.053Z,12.48
2022-09-23T07:46:20.947Z,15.27
2022-09-23T07:47:07.824Z,11.75
2022-09-23T07:47:55.732Z,10.70
2022-09-23T07:48:43.482Z,10.90
2022-09-23T07:49:30.215Z,10.98
2022-09-23T07:50:18.412Z,11.10
2022-09-23T07:51:08.333Z,15.45
2022-09-23T07:51:55.153Z,10.90
2022-09-23T07:52:42.933Z,11.52
2022-09-23T07:53:30.223Z,12.57
2022-09-23T07:54:17.624Z,10.75
2022-09-23T07:55:06.063Z,11.15
2022-09-23T07:55:57.003Z,11.63
2022-09-23T07:56:44.295Z,10.38
2022-09-23T07:57:31.136Z,10.57
2022-09-23T07:58:17.834Z,11.32
2022-09-23T07:59:05.914Z,11.75
2022-09-23T07:59:52.710Z,10.75
2022-09-23T08:00:39.553Z,10.55
2022-09-23T08:01:32.012Z,10.00
2022-09-23T08:02:18.934Z,11.77
2022-09-23T08:03:05.689Z,9.80
2022-09-23T08:03:52.454Z,11.27
2022-09-23T08:04:39.206Z,12.95
2022-09-23T08:05:26.445Z,10.13
2022-09-23T08:06:13.832Z,10.80
2022-09-23T08:07:03.705Z,9.85
2022-09-23T08:07:50.402Z,11.98
2022-09-23T08:08:43.703Z,10.40
2022-09-23T08:09:41.869Z,9.98
2022-09-23T08:10:28.672Z,11.93
2022-09-23T08:11:15.553Z,13.00
2022-09-23T08:12:02.703Z,9.80
2022-09-23T08:12:49.491Z,10.30
2022-09-23T08:13:37.030Z,11.43
2022-09-23T08:14:23.831Z,10.23
2022-09-23T08:15:10.681Z,10.05
2022-09-23T08:15:58.411Z,9.13
2022-09-23T08:16:47.235Z,10.25
2022-09-23T08:17:33.982Z,11.55
2022-09-23T08:18:20.664Z,12.18
2022-09-23T08:19:07.958Z,9.23
2022-09-23T08:19:54.730Z,10.10
2022-09-23T08:20:47.078Z,9.15
2022-09-23T08:21:34.373Z,10.32
2022-09-23T08:22:21.073Z,10.48
2022-09-23T08:23:07.864Z,9.57
2022-09-23T08:23:54.663Z,9.82
2022-09-23T08:24:41.454Z,11.57
2022-09-23T08:25:28.964Z,10.80
2022-09-23T08:26:21.796Z,10.75
2022-09-23T08:27:10.353Z,9.50
2022-09-23T08:27:57.232Z,9.48
2022-09-23T08:28:45.382Z,9.65
2022-09-23T08:29:32.063Z,9.80
2022-09-23T08:30:18.935Z,9.75
2022-09-23T08:31:06.029Z,9.60
2022-09-23T08:31:53.272Z,10.52
2022-09-23T08:32:40.013Z,14.30
2022-09-23T08:33:26.905Z,13.65
2022-09-23T08:34:13.686Z,10.77
2022-09-23T08:35:00.472Z,9.20
2022-09-23T08:35:47.203Z,10.07
2022-09-23T08:36:33.934Z,9.30
2022-09-23T08:37:20.777Z,9.77
2022-09-23T08:38:08.333Z,8.18
2022-09-23T08:38:55.493Z,9.50
2022-09-23T08:39:42.289Z,8.93
2022-09-23T08:40:29.321Z,8.57
2022-09-23T08:41:36.495Z,9.25
2022-09-23T08:42:28.633Z,9.68
2022-09-23T08:43:27.390Z,9.23
2022-09-23T08:44:22.273Z,7.85
2022-09-23T08:45:16.797Z,8.15
2022-09-23T08:46:08.404Z,7.53
2022-09-23T08:47:10.724Z,8.57
2022-09-23T08:48:10.769Z,8.63
2022-09-23T08:49:00.853Z,8.60
2022-09-23T08:50:01.244Z,7.80
2022-09-23T08:50:53.624Z,9.50
2022-09-23T08:51:47.293Z,8.23
2022-09-23T08:52:52.930Z,7.12
2022-09-23T08:53:40.533Z,7.43
2022-09-23T08:54:31.013Z,7.12
2022-09-23T08:56:07.549Z,6.85
2022-09-23T08:56:57.333Z,6.70
2022-09-23T08:58:24.543Z,8.45
2022-09-23T08:59:26.913Z,8.52
2022-09-23T09:00:20.193Z,8.02
2022-09-23T09:01:27.246Z,8.68
2022-09-23T09:02:19.368Z,7.55
2022-09-23T09:03:20.384Z,8.00
2022-09-23T09:04:22.260Z,7.60
2022-09-23T09:05:10.625Z,7.62
2022-09-23T09:05:59.106Z,6.72
2022-09-23T09:06:53.881Z,9.90
2022-09-23T09:07:42.294Z,10.35
2022-09-23T09:08:33.543Z,6.82
2022-09-23T09:09:31.003Z,8.25
2022-09-23T09:10:33.279Z,6.87
2022-09-23T09:11:23.682Z,7.37
2022-09-23T09:12:13.222Z,7.07
2022-09-23T09:13:07.660Z,6.50
2022-09-23T09:14:04.192Z,5.93
2022-09-23T09:15:13.235Z,6.18
2022-09-23T09:17:01.091Z,7.93
2022-09-23T09:18:01.724Z,7.75
2022-09-23T09:18:59.019Z,7.53
2022-09-23T09:20:13.113Z,7.75
2022-09-23T09:21:08.633Z,6.68
2022-09-23T09:21:55.771Z,5.80
2022-09-23T09:22:49.266Z,6.35
2022-09-23T09:23:55.284Z,5.70
2022-09-23T09:24:45.813Z,6.15
2022-09-23T09:26:35.343Z,6.53
2022-09-23T09:27:24.163Z,9.15
2022-09-23T09:28:36.107Z,6.40
2022-09-23T09:29:36.423Z,7.40
2022-09-23T09:30:25.670Z,8.02
2022-09-23T09:31:27.948Z,8.13
2022-09-23T09:32:48.664Z,7.00
2022-09-23T09:33:47.922Z,6.85
2022-09-23T09:34:50.172Z,6.62
2022-09-23T09:35:41.613Z,7.05
2022-09-23T09:37:07.156Z,7.32
2022-09-23T09:37:55.139Z,4.97
2022-09-23T09:38:41.833Z,6.57
2022-09-23T09:39:28.555Z,6.35
2022-09-23T09:40:20.551Z,6.07
2022-09-23T09:41:16.422Z,6.32
2022-09-23T09:42:04.723Z,6.90
2022-09-23T09:42:51.732Z,5.30
2022-09-23T09:43:44.533Z,6.22
2022-09-23T09:44:38.784Z,7.28
2022-09-23T09:45:57.512Z,8.70
2022-09-23T09:46:55.541Z,8.75
2022-09-23T09:48:03.563Z,7.95
2022-09-23T09:48:57.832Z,6.18
2022-09-23T09:50:00.852Z,5.25
2022-09-23T09:50:52.732Z,5.55
2022-09-23T09:51:42.662Z,5.28
2022-09-23T09:52:30.056Z,4.55
2022-09-23T09:53:17.069Z,4.90
2022-09-23T09:54:22.299Z,6.07
2022-09-23T09:55:15.035Z,5.32
2022-09-23T09:56:04.919Z,7.12
2022-09-23T09:57:52.260Z,4.95
2022-09-23T09:58:51.109Z,6.35
2022-09-23T09:59:44.430Z,6.07
2022-09-23T10:00:31.067Z,6.15
2022-09-23T10:01:24.900Z,5.95
2022-09-23T10:02:33.266Z,5.47
2022-09-23T10:03:30.635Z,6.30
2022-09-23T10:04:34.232Z,7.93
2022-09-23T10:05:52.458Z,7.07
2022-09-23T10:06:39.225Z,6.80
2022-09-23T10:07:31.145Z,7.25
2022-09-23T10:08:24.804Z,7.40
2022-09-23T10:09:19.696Z,4.97
2022-09-23T10:10:32.741Z,6.32
2022-09-23T10:11:20.073Z,6.72
2022-09-23T10:12:21.520Z,6.60
2022-09-23T10:13:16.305Z,12.55
2022-09-23T10:14:19.196Z,18.25
2022-09-23T10:15:26.815Z,12.73
2022-09-23T10:16:15.736Z,9.40
2022-09-23T10:17:05.612Z,7.35
2022-09-23T10:17:52.462Z,6.57
2022-09-23T10:18:50.973Z,6.75
2022-09-23T10:19:38.514Z,6.43
2022-09-23T10:20:25.213Z,8.88
2022-09-23T10:21:14.673Z,6.85
2022-09-23T10:22:05.133Z,7.57
2022-09-23T10:23:42.044Z,4.60
2022-09-23T10:24:37.023Z,8.02
2022-09-23T10:25:27.702Z,5.05
2022-09-23T10:26:17.566Z,5.28
2022-09-23T10:27:07.977Z,6.28
2022-09-23T10:27:54.708Z,5.47
2022-09-23T10:28:46.523Z,4.62
2022-09-23T10:29:48.225Z,5.50
2022-09-23T10:30:38.624Z,8.40
2022-09-23T10:31:27.014Z,6.18
2022-09-23T10:32:27.996Z,6.37
2022-09-23T10:33:27.132Z,7.20
2022-09-23T10:34:27.135Z,4.87
2022-09-23T10:35:21.142Z,6.70
2022-09-23T10:36:10.974Z,5.68
2022-09-23T10:37:14.275Z,5.12
2022-09-23T10:38:01.070Z,5.72
2022-09-23T10:38:54.289Z,9.82
2022-09-23T10:39:59.717Z,5.87
2022-09-23T10:41:05.443Z,5.93
2022-09-23T10:42:13.805Z,5.50
2022-09-23T10:43:22.971Z,8.43
2022-09-23T10:44:58.363Z,5.20
2022-09-23T10:46:07.927Z,4.97
2022-09-23T10:47:09.732Z,5.65
2022-09-23T10:48:03.801Z,4.50
2022-09-23T10:49:23.036Z,4.30
2022-09-23T10:50:33.846Z,6.03
2022-09-23T10:52:36.211Z,4.55
2022-09-23T10:53:26.234Z,7.30
2022-09-23T10:54:34.631Z,5.70
2022-09-23T10:55:40.022Z,7.05
2022-09-23T10:56:32.823Z,11.75
2022-09-23T10:57:41.767Z,10.23
2022-09-23T10:59:02.205Z,9.43
2022-09-23T11:00:04.458Z,6.30
2022-09-23T11:01:17.289Z,4.53
2022-09-23T11:02:42.668Z,4.55
2022-09-23T11:04:07.120Z,5.05
2022-09-23T11:05:18.825Z,4.40
2022-09-23T11:06:14.611Z,5.65
2022-09-23T11:07:23.991Z,6.78
2022-09-23T11:08:28.061Z,9.52
2022-09-23T11:09:25.229Z,14.87
2022-09-23T11:10:44.909Z,8.95
2022-09-23T11:11:44.119Z,6.93
2022-09-23T11:12:54.152Z,7.78
2022-09-23T11:14:00.390Z,6.00
2022-09-23T11:14:59.420Z,5.43
2022-09-23T11:15:49.522Z,5.65
2022-09-23T11:16:42.034Z,7.55
2022-09-23T11:17:47.503Z,6.32
2022-09-23T11:18:58.862Z,15.32
2022-09-23T11:20:09.644Z,8.73
2022-09-23T11:21:30.227Z,9.27
2022-09-23T11:22:59.165Z,5.95
2022-09-23T11:23:51.905Z,5.30
2022-09-23T11:25:16.980Z,6.53
2022-09-23T11:26:03.665Z,4.25
2022-09-23T11:27:19.755Z,3.97
2022-09-23T11:28:21.795Z,4.15
2022-09-23T11:29:20.446Z,3.78
2022-09-23T11:30:16.076Z,4.47
2022-09-23T11:31:24.362Z,4.28
2022-09-23T11:32:31.241Z,4.70
2022-09-23T11:33:37.906Z,4.75
2022-09-23T11:34:41.519Z,5.62
2022-09-23T11:35:35.890Z,4.43
2022-09-23T11:36:33.090Z,3.90
2022-09-23T11:37:24.452Z,4.43
2022-09-23T11:38:26.186Z,6.10
2022-09-23T11:39:20.808Z,5.43
2022-09-23T11:40:21.756Z,6.07
2022-09-23T11:41:29.740Z,6.03
2022-09-23T11:42:29.439Z,4.22
2022-09-23T11:43:23.627Z,4.97
2022-09-23T11:44:20.174Z,4.30